Shanksville, Pennsylvania
Current Conditions -  °F | °C
As of 10:54 AM on Monday 24 Nov 2014 (Local Time) from KJST Reporting Station
Few Clouds Few Clouds  
Wind Chill: 62°   Ceiling: Unl
Heat Index: 62°   Visibility: 10mi
Dew Point: 48°   Wind: 15mph
Humidity: 60%   Direction: 180°S
Pressure: 29.52"   Gusts: 24mph
Location:  40.02°N, 78.91°W
Report Text: KJST 241554Z AUTO 18013G21KT 10SM FEW049 17/09 A2952 RMK AO2 SLP993 T01670089
Loading
Personal Weather Stations






























Interactive Weather Map New forecast layout! Learn more

10-Day Weather Forecast

Advertisements
Track Severe Weather on mobile